sensor_id;sensor_type;location;lat;lon;timestamp;temperature;humidity
423;DHT22;198;48.752;9.180;2024-03-25T00:01:24;4.90;99.90
423;DHT22;198;48.752;9.180;2024-03-25T00:03:50;5.00;99.90
423;DHT22;198;48.752;9.180;2024-03-25T00:06:15;5.00;99.90
423;DHT22;198;48.752;9.180;2024-03-25T00:08:41;5.00;99.90
423;DHT22;198;48.752;9.180;2024-03-25T00:11:07;5.00;99.90
423;DHT22;198;48.752;9.180;2024-03-25T00:13:33;5.00;99.90
423;DHT22;198;48.752;9.180;2024-03-25T00:15:58;5.00;99.90
423;DHT22;198;48.752;9.180;2024-03-25T00:18:24;5.00;99.90
423;DHT22;198;48.752;9.180;2024-03-25T00:20:49;5.00;99.90
423;DHT22;198;48.752;9.180;2024-03-25T00:23:15;5.00;99.90
423;DHT22;198;48.752;9.180;2024-03-25T00:25:40;5.00;99.90
423;DHT22;198;48.752;9.180;2024-03-25T00:28:06;5.00;99.90
423;DHT22;198;48.752;9.180;2024-03-25T00:30:31;4.90;99.90
423;DHT22;198;48.752;9.180;2024-03-25T00:32:57;4.90;99.90
423;DHT22;198;48.752;9.180;2024-03-25T00:35:22;5.00;99.90
423;DHT22;198;48.752;9.180;2024-03-25T00:37:48;4.90;99.90
423;DHT22;198;48.752;9.180;2024-03-25T00:40:14;4.90;99.90
423;DHT22;198;48.752;9.180;2024-03-25T00:42:39;4.90;99.90
423;DHT22;198;48.752;9.180;2024-03-25T00:45:05;4.90;99.90
423;DHT22;198;48.752;9.180;2024-03-25T00:47:32;4.80;99.90
423;DHT22;198;48.752;9.180;2024-03-25T00:49:58;4.80;99.90
423;DHT22;198;48.752;9.180;2024-03-25T00:52:24;4.80;99.90
423;DHT22;198;48.752;9.180;2024-03-25T00:54:49;4.80;99.90
423;DHT22;198;48.752;9.180;2024-03-25T00:57:15;4.80;99.90
423;DHT22;198;48.752;9.180;2024-03-25T00:59:41;4.70;99.90
423;DHT22;198;48.752;9.180;2024-03-25T01:02:06;4.70;99.90
423;DHT22;198;48.752;9.180;2024-03-25T01:04:32;4.70;99.90
423;DHT22;198;48.752;9.180;2024-03-25T01:06:58;4.70;99.90
423;DHT22;198;48.752;9.180;2024-03-25T01:09:23;4.70;99.90
423;DHT22;198;48.752;9.180;2024-03-25T01:11:51;4.60;99.90
423;DHT22;198;48.752;9.180;2024-03-25T01:14:16;4.60;99.90
423;DHT22;198;48.752;9.180;2024-03-25T01:16:41;4.60;99.90
423;DHT22;198;48.752;9.180;2024-03-25T01:19:08;4.60;99.90
423;DHT22;198;48.752;9.180;2024-03-25T01:21:33;4.50;99.90
423;DHT22;198;48.752;9.180;2024-03-25T01:24:00;4.50;99.90
423;DHT22;198;48.752;9.180;2024-03-25T01:26:25;4.40;99.90
423;DHT22;198;48.752;9.180;2024-03-25T01:28:51;4.40;99.90
423;DHT22;198;48.752;9.180;2024-03-25T01:31:16;4.40;99.90
423;DHT22;198;48.752;9.180;2024-03-25T01:33:42;4.40;99.90
423;DHT22;198;48.752;9.180;2024-03-25T01:36:07;4.40;99.90
423;DHT22;198;48.752;9.180;2024-03-25T01:38:33;4.40;99.90
423;DHT22;198;48.752;9.180;2024-03-25T01:41:09;4.30;99.90
423;DHT22;198;48.752;9.180;2024-03-25T01:43:35;4.40;99.90
423;DHT22;198;48.752;9.180;2024-03-25T01:46:01;4.30;99.90
423;DHT22;198;48.752;9.180;2024-03-25T01:48:26;4.40;99.90
423;DHT22;198;48.752;9.180;2024-03-25T01:50:53;4.30;99.90
423;DHT22;198;48.752;9.180;2024-03-25T01:53:19;4.40;99.90
423;DHT22;198;48.752;9.180;2024-03-25T01:55:46;4.40;99.90
423;DHT22;198;48.752;9.180;2024-03-25T01:58:14;4.40;99.90
423;DHT22;198;48.752;9.180;2024-03-25T02:00:40;4.30;99.90
423;DHT22;198;48.752;9.180;2024-03-25T02:03:05;4.40;99.90
423;DHT22;198;48.752;9.180;2024-03-25T02:05:31;4.40;99.90
423;DHT22;198;48.752;9.180;2024-03-25T02:07:57;4.40;99.90
423;DHT22;198;48.752;9.180;2024-03-25T02:10:23;4.40;99.90
423;DHT22;198;48.752;9.180;2024-03-25T02:12:49;4.40;99.90
423;DHT22;198;48.752;9.180;2024-03-25T02:15:15;4.40;99.90
423;DHT22;198;48.752;9.180;2024-03-25T02:17:41;4.50;99.90
423;DHT22;198;48.752;9.180;2024-03-25T02:20:08;4.50;99.90
423;DHT22;198;48.752;9.180;2024-03-25T02:22:35;4.60;99.90
423;DHT22;198;48.752;9.180;2024-03-25T02:25:07;4.60;99.90
423;DHT22;198;48.752;9.180;2024-03-25T02:27:34;4.70;99.90
423;DHT22;198;48.752;9.180;2024-03-25T02:30:06;4.70;99.90
423;DHT22;198;48.752;9.180;2024-03-25T02:32:35;4.70;99.90
423;DHT22;198;48.752;9.180;2024-03-25T02:35:04;4.80;99.90
423;DHT22;198;48.752;9.180;2024-03-25T02:37:30;4.80;99.90
423;DHT22;198;48.752;9.180;2024-03-25T02:39:59;4.80;99.90
423;DHT22;198;48.752;9.180;2024-03-25T02:42:25;4.90;99.90
423;DHT22;198;48.752;9.180;2024-03-25T02:44:53;4.80;99.90
423;DHT22;198;48.752;9.180;2024-03-25T02:47:18;4.90;99.90
423;DHT22;198;48.752;9.180;2024-03-25T02:49:45;4.90;99.90
423;DHT22;198;48.752;9.180;2024-03-25T02:52:11;5.00;99.90
423;DHT22;198;48.752;9.180;2024-03-25T02:54:36;5.00;99.90
423;DHT22;198;48.752;9.180;2024-03-25T02:57:02;5.00;99.90
423;DHT22;198;48.752;9.180;2024-03-25T02:59:27;5.00;99.90
423;DHT22;198;48.752;9.180;2024-03-25T03:01:52;5.10;99.90
423;DHT22;198;48.752;9.180;2024-03-25T03:04:18;5.10;99.90
423;DHT22;198;48.752;9.180;2024-03-25T03:06:43;5.10;99.90
423;DHT22;198;48.752;9.180;2024-03-25T03:09:09;5.10;99.90
423;DHT22;198;48.752;9.180;2024-03-25T03:11:35;5.20;99.90
423;DHT22;198;48.752;9.180;2024-03-25T03:14:01;5.10;99.90
423;DHT22;198;48.752;9.180;2024-03-25T03:16:26;5.10;99.90
423;DHT22;198;48.752;9.180;2024-03-25T03:18:52;5.10;99.90
423;DHT22;198;48.752;9.180;2024-03-25T03:21:17;5.10;99.90
423;DHT22;198;48.752;9.180;2024-03-25T03:23:43;5.20;99.90
423;DHT22;198;48.752;9.180;2024-03-25T03:26:08;5.10;99.90
423;DHT22;198;48.752;9.180;2024-03-25T03:28:34;5.10;99.90
423;DHT22;198;48.752;9.180;2024-03-25T03:30:59;5.00;99.90
423;DHT22;198;48.752;9.180;2024-03-25T03:33:25;5.00;99.90
423;DHT22;198;48.752;9.180;2024-03-25T03:35:51;4.90;99.90
423;DHT22;198;48.752;9.180;2024-03-25T03:38:17;4.80;99.90
423;DHT22;198;48.752;9.180;2024-03-25T03:40:55;4.80;99.90
423;DHT22;198;48.752;9.180;2024-03-25T03:43:20;4.70;99.90
423;DHT22;198;48.752;9.180;2024-03-25T03:45:46;4.60;99.90
423;DHT22;198;48.752;9.180;2024-03-25T03:48:11;4.60;99.90
423;DHT22;198;48.752;9.180;2024-03-25T03:50:37;4.50;99.90
423;DHT22;198;48.752;9.180;2024-03-25T03:53:02;4.50;99.90
423;DHT22;198;48.752;9.180;2024-03-25T03:55:29;4.40;99.90
423;DHT22;198;48.752;9.180;2024-03-25T03:57:55;4.30;99.90
423;DHT22;198;48.752;9.180;2024-03-25T04:00:20;4.30;99.90
423;DHT22;198;48.752;9.180;2024-03-25T04:02:45;4.30;99.90
423;DHT22;198;48.752;9.180;2024-03-25T04:05:11;4.40;99.90
423;DHT22;198;48.752;9.180;2024-03-25T04:07:36;4.30;99.90
423;DHT22;198;48.752;9.180;2024-03-25T04:10:04;4.40;99.90
423;DHT22;198;48.752;9.180;2024-03-25T04:12:30;4.40;99.90
423;DHT22;198;48.752;9.180;2024-03-25T04:14:55;4.40;99.90
423;DHT22;198;48.752;9.180;2024-03-25T04:17:21;4.40;99.90
423;DHT22;198;48.752;9.180;2024-03-25T04:19:49;4.40;99.90
423;DHT22;198;48.752;9.180;2024-03-25T04:22:14;4.30;99.90
423;DHT22;198;48.752;9.180;2024-03-25T04:24:40;4.20;99.90
423;DHT22;198;48.752;9.180;2024-03-25T04:27:05;4.20;99.90
423;DHT22;198;48.752;9.180;2024-03-25T04:29:31;4.10;99.90
423;DHT22;198;48.752;9.180;2024-03-25T04:31:56;4.10;99.90
423;DHT22;198;48.752;9.180;2024-03-25T04:34:22;4.10;99.90
423;DHT22;198;48.752;9.180;2024-03-25T04:36:49;4.10;99.90
423;DHT22;198;48.752;9.180;2024-03-25T04:39:14;4.10;99.90
423;DHT22;198;48.752;9.180;2024-03-25T04:41:40;4.10;99.90
423;DHT22;198;48.752;9.180;2024-03-25T04:44:06;4.20;99.90
423;DHT22;198;48.752;9.180;2024-03-25T04:46:31;4.20;99.90
423;DHT22;198;48.752;9.180;2024-03-25T04:48:57;4.20;99.90
423;DHT22;198;48.752;9.180;2024-03-25T04:51:23;4.20;99.90
423;DHT22;198;48.752;9.180;2024-03-25T04:53:48;4.20;99.90
423;DHT22;198;48.752;9.180;2024-03-25T04:56:14;4.20;99.90
423;DHT22;198;48.752;9.180;2024-03-25T04:58:39;4.20;99.90
423;DHT22;198;48.752;9.180;2024-03-25T05:01:05;4.20;99.90
423;DHT22;198;48.752;9.180;2024-03-25T05:03:30;4.30;99.90
423;DHT22;198;48.752;9.180;2024-03-25T05:05:56;4.30;99.90
423;DHT22;198;48.752;9.180;2024-03-25T05:08:22;4.40;99.90
423;DHT22;198;48.752;9.180;2024-03-25T05:10:47;4.50;99.90
423;DHT22;198;48.752;9.180;2024-03-25T05:13:13;4.60;99.90
423;DHT22;198;48.752;9.180;2024-03-25T05:15:38;4.50;99.90
423;DHT22;198;48.752;9.180;2024-03-25T05:18:04;4.50;99.90
423;DHT22;198;48.752;9.180;2024-03-25T05:20:29;4.40;99.90
423;DHT22;198;48.752;9.180;2024-03-25T05:22:55;4.30;99.90
423;DHT22;198;48.752;9.180;2024-03-25T05:25:20;4.40;99.90
423;DHT22;198;48.752;9.180;2024-03-25T05:27:50;4.30;99.90
423;DHT22;198;48.752;9.180;2024-03-25T05:30:15;4.30;99.90
423;DHT22;198;48.752;9.180;2024-03-25T05:32:41;4.40;99.90
423;DHT22;198;48.752;9.180;2024-03-25T05:35:06;4.40;99.90
423;DHT22;198;48.752;9.180;2024-03-25T05:37:32;4.40;99.90
423;DHT22;198;48.752;9.180;2024-03-25T05:39:59;4.50;99.90
423;DHT22;198;48.752;9.180;2024-03-25T05:42:24;4.50;99.90
423;DHT22;198;48.752;9.180;2024-03-25T05:44:50;4.60;99.90
423;DHT22;198;48.752;9.180;2024-03-25T05:47:15;4.60;99.90
423;DHT22;198;48.752;9.180;2024-03-25T05:49:41;4.60;99.90
423;DHT22;198;48.752;9.180;2024-03-25T05:52:07;4.60;99.90
423;DHT22;198;48.752;9.180;2024-03-25T05:54:32;4.70;99.90
423;DHT22;198;48.752;9.180;2024-03-25T05:56:58;4.80;99.90
423;DHT22;198;48.752;9.180;2024-03-25T05:59:23;4.90;99.90
423;DHT22;198;48.752;9.180;2024-03-25T06:01:49;4.90;99.90
423;DHT22;198;48.752;9.180;2024-03-25T06:04:14;5.00;99.90
423;DHT22;198;48.752;9.180;2024-03-25T06:06:40;5.00;99.90
423;DHT22;198;48.752;9.180;2024-03-25T06:09:05;5.00;99.90
423;DHT22;198;48.752;9.180;2024-03-25T06:11:31;5.00;99.90
423;DHT22;198;48.752;9.180;2024-03-25T06:13:56;5.00;99.90
423;DHT22;198;48.752;9.180;2024-03-25T06:16:22;5.00;99.90
423;DHT22;198;48.752;9.180;2024-03-25T06:18:47;5.00;99.90
423;DHT22;198;48.752;9.180;2024-03-25T06:21:13;5.10;99.90
423;DHT22;198;48.752;9.180;2024-03-25T06:23:38;5.20;99.90
423;DHT22;198;48.752;9.180;2024-03-25T06:26:04;5.30;99.90
423;DHT22;198;48.752;9.180;2024-03-25T06:28:29;5.40;99.90
423;DHT22;198;48.752;9.180;2024-03-25T06:30:55;5.60;99.90
423;DHT22;198;48.752;9.180;2024-03-25T06:33:39;5.70;99.90
423;DHT22;198;48.752;9.180;2024-03-25T06:36:23;5.70;99.90
423;DHT22;198;48.752;9.180;2024-03-25T06:38:49;5.70;99.90
423;DHT22;198;48.752;9.180;2024-03-25T06:41:14;5.70;99.90
423;DHT22;198;48.752;9.180;2024-03-25T06:43:40;5.60;99.90
423;DHT22;198;48.752;9.180;2024-03-25T06:46:06;5.70;99.90
423;DHT22;198;48.752;9.180;2024-03-25T06:48:35;5.70;99.90
423;DHT22;198;48.752;9.180;2024-03-25T06:51:01;5.70;99.90
423;DHT22;198;48.752;9.180;2024-03-25T06:53:29;5.70;99.90
423;DHT22;198;48.752;9.180;2024-03-25T06:56:00;5.60;99.90
423;DHT22;198;48.752;9.180;2024-03-25T06:58:27;5.50;99.90
423;DHT22;198;48.752;9.180;2024-03-25T07:00:54;5.50;99.90
423;DHT22;198;48.752;9.180;2024-03-25T07:03:21;5.50;99.90
423;DHT22;198;48.752;9.180;2024-03-25T07:05:48;5.50;99.90
423;DHT22;198;48.752;9.180;2024-03-25T07:08:14;5.50;99.90
423;DHT22;198;48.752;9.180;2024-03-25T07:10:43;5.60;99.90
423;DHT22;198;48.752;9.180;2024-03-25T07:13:08;5.80;99.90
423;DHT22;198;48.752;9.180;2024-03-25T07:15:34;5.90;99.90
423;DHT22;198;48.752;9.180;2024-03-25T07:18:00;6.10;99.90
423;DHT22;198;48.752;9.180;2024-03-25T07:20:25;6.30;99.90
423;DHT22;198;48.752;9.180;2024-03-25T07:22:54;6.40;99.90
423;DHT22;198;48.752;9.180;2024-03-25T07:25:21;6.60;99.90
423;DHT22;198;48.752;9.180;2024-03-25T07:27:46;6.90;99.90
423;DHT22;198;48.752;9.180;2024-03-25T07:30:12;7.20;99.90
423;DHT22;198;48.752;9.180;2024-03-25T07:32:37;7.50;99.90
423;DHT22;198;48.752;9.180;2024-03-25T07:35:04;7.70;99.90
423;DHT22;198;48.752;9.180;2024-03-25T07:37:30;8.00;99.90
423;DHT22;198;48.752;9.180;2024-03-25T07:39:56;8.10;99.90
423;DHT22;198;48.752;9.180;2024-03-25T07:42:21;8.20;99.90
423;DHT22;198;48.752;9.180;2024-03-25T07:44:47;8.10;99.90
423;DHT22;198;48.752;9.180;2024-03-25T07:47:12;8.00;99.90
423;DHT22;198;48.752;9.180;2024-03-25T07:49:37;8.00;99.90
423;DHT22;198;48.752;9.180;2024-03-25T07:52:07;8.00;99.90
423;DHT22;198;48.752;9.180;2024-03-25T07:54:33;7.90;99.90
423;DHT22;198;48.752;9.180;2024-03-25T07:56:58;7.90;99.90
423;DHT22;198;48.752;9.180;2024-03-25T07:59:24;8.00;99.90
423;DHT22;198;48.752;9.180;2024-03-25T08:01:50;8.10;99.90
423;DHT22;198;48.752;9.180;2024-03-25T08:04:15;8.30;99.90
423;DHT22;198;48.752;9.180;2024-03-25T08:06:41;8.60;99.90
423;DHT22;198;48.752;9.180;2024-03-25T08:09:06;8.90;99.90
423;DHT22;198;48.752;9.180;2024-03-25T08:11:32;9.30;99.90
423;DHT22;198;48.752;9.180;2024-03-25T08:13:58;9.70;99.90
423;DHT22;198;48.752;9.180;2024-03-25T08:16:23;10.30;99.90
423;DHT22;198;48.752;9.180;2024-03-25T08:18:49;10.60;99.80
423;DHT22;198;48.752;9.180;2024-03-25T08:21:15;10.70;97.90
423;DHT22;198;48.752;9.180;2024-03-25T08:23:41;10.60;94.20
423;DHT22;198;48.752;9.180;2024-03-25T08:26:06;10.60;92.60
423;DHT22;198;48.752;9.180;2024-03-25T08:28:32;10.60;93.70
423;DHT22;198;48.752;9.180;2024-03-25T08:30:58;10.60;94.90
423;DHT22;198;48.752;9.180;2024-03-25T08:33:24;10.90;94.40
423;DHT22;198;48.752;9.180;2024-03-25T08:35:49;11.20;95.10
423;DHT22;198;48.752;9.180;2024-03-25T08:38:15;11.70;93.10
423;DHT22;198;48.752;9.180;2024-03-25T08:40:40;12.30;92.50
423;DHT22;198;48.752;9.180;2024-03-25T08:43:06;12.70;83.10
423;DHT22;198;48.752;9.180;2024-03-25T08:45:32;12.70;85.20
423;DHT22;198;48.752;9.180;2024-03-25T08:47:57;12.30;81.90
423;DHT22;198;48.752;9.180;2024-03-25T08:50:23;12.00;80.50
423;DHT22;198;48.752;9.180;2024-03-25T08:52:49;11.80;84.90
423;DHT22;198;48.752;9.180;2024-03-25T08:55:14;11.60;82.90
423;DHT22;198;48.752;9.180;2024-03-25T08:57:40;11.40;82.00
423;DHT22;198;48.752;9.180;2024-03-25T09:00:06;11.30;83.50
423;DHT22;198;48.752;9.180;2024-03-25T09:02:35;11.30;84.40
423;DHT22;198;48.752;9.180;2024-03-25T09:05:01;11.40;82.30
423;DHT22;198;48.752;9.180;2024-03-25T09:07:31;11.30;81.30
423;DHT22;198;48.752;9.180;2024-03-25T09:09:56;11.20;82.60
423;DHT22;198;48.752;9.180;2024-03-25T09:12:40;11.20;83.60
423;DHT22;198;48.752;9.180;2024-03-25T09:15:06;11.20;85.30
423;DHT22;198;48.752;9.180;2024-03-25T09:17:32;11.20;83.20
423;DHT22;198;48.752;9.180;2024-03-25T09:19:57;11.60;85.20
423;DHT22;198;48.752;9.180;2024-03-25T09:22:23;12.90;83.00
423;DHT22;198;48.752;9.180;2024-03-25T09:24:48;14.50;73.10
423;DHT22;198;48.752;9.180;2024-03-25T09:27:15;15.80;65.20
423;DHT22;198;48.752;9.180;2024-03-25T09:29:41;17.20;55.60
423;DHT22;198;48.752;9.180;2024-03-25T09:32:07;18.60;52.10
423;DHT22;198;48.752;9.180;2024-03-25T09:34:32;20.30;48.90
423;DHT22;198;48.752;9.180;2024-03-25T09:36:58;21.80;43.60
423;DHT22;198;48.752;9.180;2024-03-25T09:39:23;23.50;40.80
423;DHT22;198;48.752;9.180;2024-03-25T09:41:51;25.20;40.40
423;DHT22;198;48.752;9.180;2024-03-25T09:44:22;27.00;36.40
423;DHT22;198;48.752;9.180;2024-03-25T09:46:50;28.90;32.60
423;DHT22;198;48.752;9.180;2024-03-25T09:49:16;30.80;29.60
423;DHT22;198;48.752;9.180;2024-03-25T09:51:42;32.30;27.70
423;DHT22;198;48.752;9.180;2024-03-25T09:54:07;33.50;25.10
423;DHT22;198;48.752;9.180;2024-03-25T09:56:33;33.20;23.50
423;DHT22;198;48.752;9.180;2024-03-25T09:59:00;31.50;23.60
423;DHT22;198;48.752;9.180;2024-03-25T10:01:26;29.70;23.90
423;DHT22;198;48.752;9.180;2024-03-25T10:06:20;28.80;23.40
423;DHT22;198;48.752;9.180;2024-03-25T10:08:45;27.10;23.20
423;DHT22;198;48.752;9.180;2024-03-25T10:11:11;25.30;24.30
423;DHT22;198;48.752;9.180;2024-03-25T10:13:37;23.50;25.90
423;DHT22;198;48.752;9.180;2024-03-25T10:16:03;21.90;28.20
423;DHT22;198;48.752;9.180;2024-03-25T10:18:28;20.70;28.20
423;DHT22;198;48.752;9.180;2024-03-25T10:20:54;19.80;28.70
423;DHT22;198;48.752;9.180;2024-03-25T10:23:23;19.10;29.20
423;DHT22;198;48.752;9.180;2024-03-25T10:25:51;18.40;29.20
423;DHT22;198;48.752;9.180;2024-03-25T10:28:16;17.80;29.40
423;DHT22;198;48.752;9.180;2024-03-25T10:30:42;17.20;32.80
423;DHT22;198;48.752;9.180;2024-03-25T10:33:07;16.80;33.40
423;DHT22;198;48.752;9.180;2024-03-25T10:35:37;16.50;35.30
423;DHT22;198;48.752;9.180;2024-03-25T10:38:04;16.30;36.00
423;DHT22;198;48.752;9.180;2024-03-25T10:40:32;16.40;35.90
423;DHT22;198;48.752;9.180;2024-03-25T10:43:03;16.80;35.40
423;DHT22;198;48.752;9.180;2024-03-25T10:45:30;16.90;34.10
423;DHT22;198;48.752;9.180;2024-03-25T10:47:57;16.90;36.50
423;DHT22;198;48.752;9.180;2024-03-25T10:50:28;16.80;35.70
423;DHT22;198;48.752;9.180;2024-03-25T10:52:54;16.60;35.00
423;DHT22;198;48.752;9.180;2024-03-25T10:55:21;16.40;35.10
423;DHT22;198;48.752;9.180;2024-03-25T10:57:48;16.20;37.50
423;DHT22;198;48.752;9.180;2024-03-25T11:00:15;16.10;37.20
423;DHT22;198;48.752;9.180;2024-03-25T11:02:42;15.90;38.00
423;DHT22;198;48.752;9.180;2024-03-25T11:05:09;15.50;36.20
423;DHT22;198;48.752;9.180;2024-03-25T11:07:36;15.30;38.30
423;DHT22;198;48.752;9.180;2024-03-25T11:10:05;15.30;37.50
423;DHT22;198;48.752;9.180;2024-03-25T11:12:41;15.90;37.40
423;DHT22;198;48.752;9.180;2024-03-25T11:15:08;16.50;37.70
423;DHT22;198;48.752;9.180;2024-03-25T11:17:33;16.80;37.50
423;DHT22;198;48.752;9.180;2024-03-25T11:20:15;16.90;36.70
423;DHT22;198;48.752;9.180;2024-03-25T11:22:51;17.50;35.40
423;DHT22;198;48.752;9.180;2024-03-25T11:25:17;17.80;36.10
423;DHT22;198;48.752;9.180;2024-03-25T11:27:44;19.90;34.50
423;DHT22;198;48.752;9.180;2024-03-25T11:30:11;20.50;33.40
423;DHT22;198;48.752;9.180;2024-03-25T11:32:51;20.40;33.30
423;DHT22;198;48.752;9.180;2024-03-25T11:35:17;19.90;32.60
423;DHT22;198;48.752;9.180;2024-03-25T11:37:43;19.60;33.60
423;DHT22;198;48.752;9.180;2024-03-25T11:40:09;19.50;32.40
423;DHT22;198;48.752;9.180;2024-03-25T11:42:41;20.40;32.60
423;DHT22;198;48.752;9.180;2024-03-25T11:45:22;21.40;29.80
423;DHT22;198;48.752;9.180;2024-03-25T11:47:49;24.10;29.80
423;DHT22;198;48.752;9.180;2024-03-25T11:50:19;29.40;28.00
423;DHT22;198;48.752;9.180;2024-03-25T11:52:45;33.70;23.10
423;DHT22;198;48.752;9.180;2024-03-25T11:55:16;36.20;21.30
423;DHT22;198;48.752;9.180;2024-03-25T11:57:42;39.10;19.40
423;DHT22;198;48.752;9.180;2024-03-25T12:00:08;38.60;16.50
423;DHT22;198;48.752;9.180;2024-03-25T12:02:43;34.50;15.90
423;DHT22;198;48.752;9.180;2024-03-25T12:05:10;31.40;18.30
423;DHT22;198;48.752;9.180;2024-03-25T12:07:36;30.20;20.00
423;DHT22;198;48.752;9.180;2024-03-25T12:10:02;30.50;20.70
423;DHT22;198;48.752;9.180;2024-03-25T12:12:47;29.20;20.00
423;DHT22;198;48.752;9.180;2024-03-25T12:15:13;26.70;22.00
423;DHT22;198;48.752;9.180;2024-03-25T12:17:39;25.70;23.00
423;DHT22;198;48.752;9.180;2024-03-25T12:20:06;27.50;24.00
423;DHT22;198;48.752;9.180;2024-03-25T12:22:35;31.30;21.90
423;DHT22;198;48.752;9.180;2024-03-25T12:25:05;34.40;20.40
423;DHT22;198;48.752;9.180;2024-03-25T12:27:36;37.00;17.40
423;DHT22;198;48.752;9.180;2024-03-25T12:30:07;34.30;16.50
423;DHT22;198;48.752;9.180;2024-03-25T12:32:43;31.50;17.90
423;DHT22;198;48.752;9.180;2024-03-25T12:35:14;28.50;18.90
423;DHT22;198;48.752;9.180;2024-03-25T12:37:42;28.40;19.40
423;DHT22;198;48.752;9.180;2024-03-25T12:40:24;31.00;18.80
423;DHT22;198;48.752;9.180;2024-03-25T12:42:52;33.60;16.80
423;DHT22;198;48.752;9.180;2024-03-25T12:45:19;36.00;17.10
423;DHT22;198;48.752;9.180;2024-03-25T12:47:45;38.00;16.40
423;DHT22;198;48.752;9.180;2024-03-25T12:50:10;39.80;15.50
423;DHT22;198;48.752;9.180;2024-03-25T12:52:36;39.50;13.80
423;DHT22;198;48.752;9.180;2024-03-25T12:55:02;39.00;14.10
423;DHT22;198;48.752;9.180;2024-03-25T12:57:29;38.70;14.10
423;DHT22;198;48.752;9.180;2024-03-25T12:59:54;39.70;13.60
423;DHT22;198;48.752;9.180;2024-03-25T13:02:20;40.40;12.90
423;DHT22;198;48.752;9.180;2024-03-25T13:04:45;41.80;13.10
423;DHT22;198;48.752;9.180;2024-03-25T13:07:11;41.70;13.10
423;DHT22;198;48.752;9.180;2024-03-25T13:09:37;43.20;12.90
423;DHT22;198;48.752;9.180;2024-03-25T13:12:03;43.70;12.80
423;DHT22;198;48.752;9.180;2024-03-25T13:14:29;44.40;12.00
423;DHT22;198;48.752;9.180;2024-03-25T13:16:55;45.60;12.50
423;DHT22;198;48.752;9.180;2024-03-25T13:19:20;46.00;10.80
423;DHT22;198;48.752;9.180;2024-03-25T13:21:46;46.30;10.70
423;DHT22;198;48.752;9.180;2024-03-25T13:24:13;44.70;10.30
423;DHT22;198;48.752;9.180;2024-03-25T13:26:38;43.30;11.50
423;DHT22;198;48.752;9.180;2024-03-25T13:29:04;43.10;11.00
423;DHT22;198;48.752;9.180;2024-03-25T13:31:30;44.30;11.60
423;DHT22;198;48.752;9.180;2024-03-25T13:33:55;44.30;10.40
423;DHT22;198;48.752;9.180;2024-03-25T13:36:21;42.10;10.40
423;DHT22;198;48.752;9.180;2024-03-25T13:38:47;38.00;11.60
423;DHT22;198;48.752;9.180;2024-03-25T13:41:12;36.70;13.50
423;DHT22;198;48.752;9.180;2024-03-25T13:43:42;37.30;13.00
423;DHT22;198;48.752;9.180;2024-03-25T13:46:08;38.80;12.60
423;DHT22;198;48.752;9.180;2024-03-25T13:48:34;38.60;11.80
423;DHT22;198;48.752;9.180;2024-03-25T13:50:59;38.40;12.00
423;DHT22;198;48.752;9.180;2024-03-25T13:53:25;38.10;12.00
423;DHT22;198;48.752;9.180;2024-03-25T13:55:51;39.30;12.90
423;DHT22;198;48.752;9.180;2024-03-25T13:58:16;41.00;12.50
423;DHT22;198;48.752;9.180;2024-03-25T14:00:41;40.90;12.10
423;DHT22;198;48.752;9.180;2024-03-25T14:03:07;42.30;12.30
423;DHT22;198;48.752;9.180;2024-03-25T14:05:33;41.80;10.60
423;DHT22;198;48.752;9.180;2024-03-25T14:07:58;40.70;10.80
423;DHT22;198;48.752;9.180;2024-03-25T14:10:24;40.60;11.20
423;DHT22;198;48.752;9.180;2024-03-25T14:12:49;40.30;11.10
423;DHT22;198;48.752;9.180;2024-03-25T14:15:15;41.40;11.40
423;DHT22;198;48.752;9.180;2024-03-25T14:17:40;43.00;11.60
423;DHT22;198;48.752;9.180;2024-03-25T14:20:07;43.50;11.10
423;DHT22;198;48.752;9.180;2024-03-25T14:22:34;44.40;11.00
423;DHT22;198;48.752;9.180;2024-03-25T14:24:59;44.00;10.30
423;DHT22;198;48.752;9.180;2024-03-25T14:27:25;43.60;10.60
423;DHT22;198;48.752;9.180;2024-03-25T14:29:51;44.30;11.00
423;DHT22;198;48.752;9.180;2024-03-25T14:32:21;44.60;10.20
423;DHT22;198;48.752;9.180;2024-03-25T14:34:49;42.60;10.10
423;DHT22;198;48.752;9.180;2024-03-25T14:37:15;42.40;10.10
423;DHT22;198;48.752;9.180;2024-03-25T14:39:41;42.00;10.70
423;DHT22;198;48.752;9.180;2024-03-25T14:42:10;41.10;10.80
423;DHT22;198;48.752;9.180;2024-03-25T14:44:36;40.60;10.90
423;DHT22;198;48.752;9.180;2024-03-25T14:47:03;39.60;11.10
423;DHT22;198;48.752;9.180;2024-03-25T14:49:28;39.30;11.70
423;DHT22;198;48.752;9.180;2024-03-25T14:51:54;39.90;11.90
423;DHT22;198;48.752;9.180;2024-03-25T14:54:20;40.10;10.80
423;DHT22;198;48.752;9.180;2024-03-25T14:56:46;39.60;11.50
423;DHT22;198;48.752;9.180;2024-03-25T14:59:12;40.60;12.00
423;DHT22;198;48.752;9.180;2024-03-25T15:01:38;40.90;11.20
423;DHT22;198;48.752;9.180;2024-03-25T15:04:04;40.50;11.20
423;DHT22;198;48.752;9.180;2024-03-25T15:06:30;40.60;11.90
423;DHT22;198;48.752;9.180;2024-03-25T15:08:59;40.90;11.80
423;DHT22;198;48.752;9.180;2024-03-25T15:11:25;41.20;11.80
423;DHT22;198;48.752;9.180;2024-03-25T15:13:51;40.90;11.10
423;DHT22;198;48.752;9.180;2024-03-25T15:16:17;39.00;10.90
423;DHT22;198;48.752;9.180;2024-03-25T15:18:43;37.10;11.40
423;DHT22;198;48.752;9.180;2024-03-25T15:21:08;35.70;12.40
423;DHT22;198;48.752;9.180;2024-03-25T15:23:34;36.10;12.70
423;DHT22;198;48.752;9.180;2024-03-25T15:26:00;36.80;12.70
423;DHT22;198;48.752;9.180;2024-03-25T15:28:25;37.20;12.30
423;DHT22;198;48.752;9.180;2024-03-25T15:30:54;36.60;12.30
423;DHT22;198;48.752;9.180;2024-03-25T15:33:20;36.10;12.50
423;DHT22;198;48.752;9.180;2024-03-25T15:35:45;35.40;12.40
423;DHT22;198;48.752;9.180;2024-03-25T15:38:11;35.20;12.70
423;DHT22;198;48.752;9.180;2024-03-25T15:40:37;34.70;12.70
423;DHT22;198;48.752;9.180;2024-03-25T15:43:03;34.50;12.50
423;DHT22;198;48.752;9.180;2024-03-25T15:45:29;33.70;12.90
423;DHT22;198;48.752;9.180;2024-03-25T15:47:57;34.00;13.30
423;DHT22;198;48.752;9.180;2024-03-25T15:50:23;33.90;13.40
423;DHT22;198;48.752;9.180;2024-03-25T15:52:49;34.20;13.70
423;DHT22;198;48.752;9.180;2024-03-25T15:55:15;34.90;13.30
423;DHT22;198;48.752;9.180;2024-03-25T15:57:41;35.40;12.90
423;DHT22;198;48.752;9.180;2024-03-25T16:00:07;36.20;12.70
423;DHT22;198;48.752;9.180;2024-03-25T16:02:38;35.90;11.90
423;DHT22;198;48.752;9.180;2024-03-25T16:05:04;35.40;12.00
423;DHT22;198;48.752;9.180;2024-03-25T16:07:30;35.40;12.30
423;DHT22;198;48.752;9.180;2024-03-25T16:09:56;35.00;12.00
423;DHT22;198;48.752;9.180;2024-03-25T16:12:21;35.10;12.20
423;DHT22;198;48.752;9.180;2024-03-25T16:14:47;34.20;12.00
423;DHT22;198;48.752;9.180;2024-03-25T16:17:13;33.80;12.30
423;DHT22;198;48.752;9.180;2024-03-25T16:19:38;33.90;11.90
423;DHT22;198;48.752;9.180;2024-03-25T16:22:04;33.40;12.10
423;DHT22;198;48.752;9.180;2024-03-25T16:24:30;33.40;13.10
423;DHT22;198;48.752;9.180;2024-03-25T16:26:56;32.70;12.00
423;DHT22;198;48.752;9.180;2024-03-25T16:29:23;32.50;12.60
423;DHT22;198;48.752;9.180;2024-03-25T16:31:48;32.40;12.90
423;DHT22;198;48.752;9.180;2024-03-25T16:34:14;32.00;12.80
423;DHT22;198;48.752;9.180;2024-03-25T16:36:39;31.80;12.80
423;DHT22;198;48.752;9.180;2024-03-25T16:39:05;31.30;13.00
423;DHT22;198;48.752;9.180;2024-03-25T16:41:31;31.40;13.10